sensor_id;sensor_type;location;lat;lon;timestamp;temperature;humidity
67868;SHT31;54672;46.096;14.470;2023-06-22T00:01:47;22.49;74.14
67868;SHT31;54672;46.096;14.470;2023-06-22T00:04:13;22.38;74.74
67868;SHT31;54672;46.096;14.470;2023-06-22T00:06:38;22.22;75.05
67868;SHT31;54672;46.096;14.470;2023-06-22T00:09:03;22.11;75.90
67868;SHT31;54672;46.096;14.470;2023-06-22T00:11:29;22.01;76.55
67868;SHT31;54672;46.096;14.470;2023-06-22T00:13:54;21.95;76.81
67868;SHT31;54672;46.096;14.470;2023-06-22T00:16:20;21.85;76.85
67868;SHT31;54672;46.096;14.470;2023-06-22T00:18:45;21.74;77.31
67868;SHT31;54672;46.096;14.470;2023-06-22T00:21:12;21.70;77.73
67868;SHT31;54672;46.096;14.470;2023-06-22T00:23:38;21.65;77.80
67868;SHT31;54672;46.096;14.470;2023-06-22T00:26:03;21.58;77.89
67868;SHT31;54672;46.096;14.470;2023-06-22T00:28:28;21.54;78.01
67868;SHT31;54672;46.096;14.470;2023-06-22T00:30:54;21.55;77.78
67868;SHT31;54672;46.096;14.470;2023-06-22T00:33:19;21.61;77.31
67868;SHT31;54672;46.096;14.470;2023-06-22T00:35:45;21.58;77.20
67868;SHT31;54672;46.096;14.470;2023-06-22T00:38:11;21.60;77.57
67868;SHT31;54672;46.096;14.470;2023-06-22T00:40:36;21.51;78.00
67868;SHT31;54672;46.096;14.470;2023-06-22T00:43:02;21.49;78.24
67868;SHT31;54672;46.096;14.470;2023-06-22T00:45:28;21.44;78.60
67868;SHT31;54672;46.096;14.470;2023-06-22T00:47:56;21.43;79.24
67868;SHT31;54672;46.096;14.470;2023-06-22T00:50:23;21.39;78.55
67868;SHT31;54672;46.096;14.470;2023-06-22T00:52:56;21.36;78.65
67868;SHT31;54672;46.096;14.470;2023-06-22T00:55:22;21.32;78.93
67868;SHT31;54672;46.096;14.470;2023-06-22T00:57:48;21.29;79.29
67868;SHT31;54672;46.096;14.470;2023-06-22T01:00:15;21.22;79.74
67868;SHT31;54672;46.096;14.470;2023-06-22T01:02:45;21.14;79.96
67868;SHT31;54672;46.096;14.470;2023-06-22T01:05:15;21.12;80.14
67868;SHT31;54672;46.096;14.470;2023-06-22T01:08:00;21.09;79.77
67868;SHT31;54672;46.096;14.470;2023-06-22T01:10:43;21.07;79.27
67868;SHT31;54672;46.096;14.470;2023-06-22T01:13:17;21.16;79.28
67868;SHT31;54672;46.096;14.470;2023-06-22T01:15:47;21.02;80.00
67868;SHT31;54672;46.096;14.470;2023-06-22T01:18:17;20.91;79.84
67868;SHT31;54672;46.096;14.470;2023-06-22T01:20:42;20.83;79.97
67868;SHT31;54672;46.096;14.470;2023-06-22T01:23:25;20.79;81.04
67868;SHT31;54672;46.096;14.470;2023-06-22T01:26:14;20.75;81.02
67868;SHT31;54672;46.096;14.470;2023-06-22T01:28:46;20.68;81.28
67868;SHT31;54672;46.096;14.470;2023-06-22T01:31:14;20.64;81.61
67868;SHT31;54672;46.096;14.470;2023-06-22T01:33:42;20.48;82.70
67868;SHT31;54672;46.096;14.470;2023-06-22T01:36:08;20.34;83.95
67868;SHT31;54672;46.096;14.470;2023-06-22T01:38:35;20.38;83.83
67868;SHT31;54672;46.096;14.470;2023-06-22T01:41:02;20.40;83.94
67868;SHT31;54672;46.096;14.470;2023-06-22T01:43:28;20.44;83.83
67868;SHT31;54672;46.096;14.470;2023-06-22T01:46:01;20.47;83.68
67868;SHT31;54672;46.096;14.470;2023-06-22T01:48:26;20.41;84.10
67868;SHT31;54672;46.096;14.470;2023-06-22T01:50:53;20.31;84.43
67868;SHT31;54672;46.096;14.470;2023-06-22T01:53:21;20.28;84.47
67868;SHT31;54672;46.096;14.470;2023-06-22T01:55:47;20.32;84.13
67868;SHT31;54672;46.096;14.470;2023-06-22T01:58:12;20.34;84.04
67868;SHT31;54672;46.096;14.470;2023-06-22T02:00:39;20.20;84.63
67868;SHT31;54672;46.096;14.470;2023-06-22T02:03:10;20.14;84.68
67868;SHT31;54672;46.096;14.470;2023-06-22T02:05:50;20.17;84.77
67868;SHT31;54672;46.096;14.470;2023-06-22T02:08:41;20.18;84.76
67868;SHT31;54672;46.096;14.470;2023-06-22T02:11:08;20.24;84.66
67868;SHT31;54672;46.096;14.470;2023-06-22T02:13:36;20.09;85.60
67868;SHT31;54672;46.096;14.470;2023-06-22T02:16:03;19.97;85.87
67868;SHT31;54672;46.096;14.470;2023-06-22T02:18:29;19.89;86.09
67868;SHT31;54672;46.096;14.470;2023-06-22T02:20:54;19.84;86.10
67868;SHT31;54672;46.096;14.470;2023-06-22T02:23:19;19.86;86.25
67868;SHT31;54672;46.096;14.470;2023-06-22T02:25:45;19.93;86.19
67868;SHT31;54672;46.096;14.470;2023-06-22T02:28:10;19.96;85.05
67868;SHT31;54672;46.096;14.470;2023-06-22T02:30:36;19.93;84.85
67868;SHT31;54672;46.096;14.470;2023-06-22T02:33:01;19.92;84.86
67868;SHT31;54672;46.096;14.470;2023-06-22T02:35:28;19.93;85.05
67868;SHT31;54672;46.096;14.470;2023-06-22T02:38:01;20.00;84.88
67868;SHT31;54672;46.096;14.470;2023-06-22T02:40:27;20.00;84.79
67868;SHT31;54672;46.096;14.470;2023-06-22T02:42:54;19.98;84.71
67868;SHT31;54672;46.096;14.470;2023-06-22T02:45:20;19.94;84.83
67868;SHT31;54672;46.096;14.470;2023-06-22T02:47:45;19.92;84.77
67868;SHT31;54672;46.096;14.470;2023-06-22T02:50:13;19.87;84.80
67868;SHT31;54672;46.096;14.470;2023-06-22T02:52:38;19.82;84.92
67868;SHT31;54672;46.096;14.470;2023-06-22T02:55:05;19.74;85.37
67868;SHT31;54672;46.096;14.470;2023-06-22T02:57:30;19.74;85.63
67868;SHT31;54672;46.096;14.470;2023-06-22T02:59:56;19.67;85.78
67868;SHT31;54672;46.096;14.470;2023-06-22T03:02:21;19.67;85.64
67868;SHT31;54672;46.096;14.470;2023-06-22T03:04:47;19.76;85.23
67868;SHT31;54672;46.096;14.470;2023-06-22T03:07:13;19.61;86.71
67868;SHT31;54672;46.096;14.470;2023-06-22T03:09:39;19.49;86.97
67868;SHT31;54672;46.096;14.470;2023-06-22T03:12:04;19.35;87.84
67868;SHT31;54672;46.096;14.470;2023-06-22T03:14:30;19.29;88.03
67868;SHT31;54672;46.096;14.470;2023-06-22T03:16:55;19.28;88.49
67868;SHT31;54672;46.096;14.470;2023-06-22T03:19:26;19.14;88.85
67868;SHT31;54672;46.096;14.470;2023-06-22T03:21:53;19.15;88.94
67868;SHT31;54672;46.096;14.470;2023-06-22T03:24:18;19.18;88.66
67868;SHT31;54672;46.096;14.470;2023-06-22T03:26:45;19.22;88.62
67868;SHT31;54672;46.096;14.470;2023-06-22T03:29:12;19.33;88.36
67868;SHT31;54672;46.096;14.470;2023-06-22T03:31:37;19.35;87.98
67868;SHT31;54672;46.096;14.470;2023-06-22T03:34:02;19.45;87.99
67868;SHT31;54672;46.096;14.470;2023-06-22T03:36:28;19.51;87.50
67868;SHT31;54672;46.096;14.470;2023-06-22T03:38:53;19.59;87.38
67868;SHT31;54672;46.096;14.470;2023-06-22T03:41:19;19.67;86.87
67868;SHT31;54672;46.096;14.470;2023-06-22T03:43:44;19.66;87.05
67868;SHT31;54672;46.096;14.470;2023-06-22T03:46:10;19.62;86.99
67868;SHT31;54672;46.096;14.470;2023-06-22T03:48:35;19.65;87.07
67868;SHT31;54672;46.096;14.470;2023-06-22T03:51:01;19.83;86.55
67868;SHT31;54672;46.096;14.470;2023-06-22T03:53:28;19.83;86.39
67868;SHT31;54672;46.096;14.470;2023-06-22T03:55:53;19.98;86.13
67868;SHT31;54672;46.096;14.470;2023-06-22T03:58:20;20.23;85.10
67868;SHT31;54672;46.096;14.470;2023-06-22T04:00:46;20.37;84.59
67868;SHT31;54672;46.096;14.470;2023-06-22T04:03:13;20.37;85.06
67868;SHT31;54672;46.096;14.470;2023-06-22T04:05:39;20.44;84.69
67868;SHT31;54672;46.096;14.470;2023-06-22T04:08:05;20.54;84.35
67868;SHT31;54672;46.096;14.470;2023-06-22T04:10:30;20.72;84.15
67868;SHT31;54672;46.096;14.470;2023-06-22T04:12:56;20.89;82.97
67868;SHT31;54672;46.096;14.470;2023-06-22T04:15:21;20.89;83.11
67868;SHT31;54672;46.096;14.470;2023-06-22T04:17:47;20.76;83.63
67868;SHT31;54672;46.096;14.470;2023-06-22T04:20:12;20.72;84.01
67868;SHT31;54672;46.096;14.470;2023-06-22T04:22:38;20.72;83.81
67868;SHT31;54672;46.096;14.470;2023-06-22T04:25:05;21.02;82.82
67868;SHT31;54672;46.096;14.470;2023-06-22T04:27:30;21.44;81.17
67868;SHT31;54672;46.096;14.470;2023-06-22T04:29:56;21.81;80.20
67868;SHT31;54672;46.096;14.470;2023-06-22T04:32:21;22.42;78.93
67868;SHT31;54672;46.096;14.470;2023-06-22T04:34:46;23.00;76.65
67868;SHT31;54672;46.096;14.470;2023-06-22T04:37:12;23.49;74.84
67868;SHT31;54672;46.096;14.470;2023-06-22T04:39:42;23.68;74.20
67868;SHT31;54672;46.096;14.470;2023-06-22T04:42:07;23.55;74.54
67868;SHT31;54672;46.096;14.470;2023-06-22T04:44:32;23.68;74.41
67868;SHT31;54672;46.096;14.470;2023-06-22T04:47:01;23.90;73.95
67868;SHT31;54672;46.096;14.470;2023-06-22T04:49:29;23.95;73.72
67868;SHT31;54672;46.096;14.470;2023-06-22T04:51:58;24.41;72.25
67868;SHT31;54672;46.096;14.470;2023-06-22T04:54:24;25.04;70.21
67868;SHT31;54672;46.096;14.470;2023-06-22T04:56:49;25.47;68.09
67868;SHT31;54672;46.096;14.470;2023-06-22T04:59:24;23.66;73.22
67868;SHT31;54672;46.096;14.470;2023-06-22T05:02:00;23.42;74.86
67868;SHT31;54672;46.096;14.470;2023-06-22T05:04:27;23.62;74.87
67868;SHT31;54672;46.096;14.470;2023-06-22T05:06:53;24.50;72.39
67868;SHT31;54672;46.096;14.470;2023-06-22T05:09:19;25.09;70.49
67868;SHT31;54672;46.096;14.470;2023-06-22T05:11:45;26.60;65.95
67868;SHT31;54672;46.096;14.470;2023-06-22T05:14:11;27.78;62.19
67868;SHT31;54672;46.096;14.470;2023-06-22T05:16:37;28.40;59.97
67868;SHT31;54672;46.096;14.470;2023-06-22T05:19:03;29.07;58.04
67868;SHT31;54672;46.096;14.470;2023-06-22T05:21:29;29.11;58.03
67868;SHT31;54672;46.096;14.470;2023-06-22T05:23:56;29.54;57.09
67868;SHT31;54672;46.096;14.470;2023-06-22T05:26:26;29.54;56.33
67868;SHT31;54672;46.096;14.470;2023-06-22T05:28:51;29.89;54.96
67868;SHT31;54672;46.096;14.470;2023-06-22T05:31:17;29.99;54.38
67868;SHT31;54672;46.096;14.470;2023-06-22T05:33:45;29.82;55.31
67868;SHT31;54672;46.096;14.470;2023-06-22T05:36:14;29.92;55.65
67868;SHT31;54672;46.096;14.470;2023-06-22T05:38:41;30.12;55.25
67868;SHT31;54672;46.096;14.470;2023-06-22T05:41:07;29.95;55.15
67868;SHT31;54672;46.096;14.470;2023-06-22T05:43:36;30.43;55.23
67868;SHT31;54672;46.096;14.470;2023-06-22T05:46:05;30.94;53.49
67868;SHT31;54672;46.096;14.470;2023-06-22T05:48:30;30.91;53.52
67868;SHT31;54672;46.096;14.470;2023-06-22T05:50:59;31.56;52.10
67868;SHT31;54672;46.096;14.470;2023-06-22T05:53:25;31.90;51.27
67868;SHT31;54672;46.096;14.470;2023-06-22T05:55:51;31.88;51.52
67868;SHT31;54672;46.096;14.470;2023-06-22T05:58:16;31.51;52.50
67868;SHT31;54672;46.096;14.470;2023-06-22T06:00:42;31.59;52.38
67868;SHT31;54672;46.096;14.470;2023-06-22T06:03:11;32.18;50.96
67868;SHT31;54672;46.096;14.470;2023-06-22T06:05:40;32.51;50.13
67868;SHT31;54672;46.096;14.470;2023-06-22T06:08:06;32.21;49.89
67868;SHT31;54672;46.096;14.470;2023-06-22T06:10:33;31.85;51.14
67868;SHT31;54672;46.096;14.470;2023-06-22T06:13:00;31.32;52.47
67868;SHT31;54672;46.096;14.470;2023-06-22T06:15:36;31.90;51.63
67868;SHT31;54672;46.096;14.470;2023-06-22T06:18:08;32.22;50.45
67868;SHT31;54672;46.096;14.470;2023-06-22T06:20:36;32.22;50.80
67868;SHT31;54672;46.096;14.470;2023-06-22T06:23:13;32.58;49.93
67868;SHT31;54672;46.096;14.470;2023-06-22T06:25:42;33.06;49.54
67868;SHT31;54672;46.096;14.470;2023-06-22T06:28:08;32.75;50.24
67868;SHT31;54672;46.096;14.470;2023-06-22T06:30:34;32.99;49.77
67868;SHT31;54672;46.096;14.470;2023-06-22T06:33:02;33.16;49.77
67868;SHT31;54672;46.096;14.470;2023-06-22T06:35:30;33.29;49.12
67868;SHT31;54672;46.096;14.470;2023-06-22T06:37:55;33.39;48.96
67868;SHT31;54672;46.096;14.470;2023-06-22T06:40:24;33.70;48.46
67868;SHT31;54672;46.096;14.470;2023-06-22T06:42:50;33.31;48.69
67868;SHT31;54672;46.096;14.470;2023-06-22T06:45:20;33.68;47.97
67868;SHT31;54672;46.096;14.470;2023-06-22T06:47:52;33.70;47.97
67868;SHT31;54672;46.096;14.470;2023-06-22T06:50:19;33.64;48.28
67868;SHT31;54672;46.096;14.470;2023-06-22T06:52:45;33.29;48.36
67868;SHT31;54672;46.096;14.470;2023-06-22T06:55:11;33.00;48.87
67868;SHT31;54672;46.096;14.470;2023-06-22T06:57:41;32.78;49.70
67868;SHT31;54672;46.096;14.470;2023-06-22T07:00:15;33.80;48.73
67868;SHT31;54672;46.096;14.470;2023-06-22T07:02:44;34.59;46.97
67868;SHT31;54672;46.096;14.470;2023-06-22T07:05:10;34.97;45.68
67868;SHT31;54672;46.096;14.470;2023-06-22T07:07:40;34.32;46.24
67868;SHT31;54672;46.096;14.470;2023-06-22T07:10:07;35.01;45.59
67868;SHT31;54672;46.096;14.470;2023-06-22T07:12:33;34.33;46.26
67868;SHT31;54672;46.096;14.470;2023-06-22T07:15:09;34.76;45.71
67868;SHT31;54672;46.096;14.470;2023-06-22T07:17:38;34.15;46.54
67868;SHT31;54672;46.096;14.470;2023-06-22T07:20:10;33.89;47.25
67868;SHT31;54672;46.096;14.470;2023-06-22T07:22:43;33.91;46.68
67868;SHT31;54672;46.096;14.470;2023-06-22T07:25:13;33.04;48.90
67868;SHT31;54672;46.096;14.470;2023-06-22T07:28:04;34.11;45.97
67868;SHT31;54672;46.096;14.470;2023-06-22T07:30:52;33.16;47.38
67868;SHT31;54672;46.096;14.470;2023-06-22T07:33:20;33.85;48.17
67868;SHT31;54672;46.096;14.470;2023-06-22T07:35:46;34.53;45.27
67868;SHT31;54672;46.096;14.470;2023-06-22T07:38:23;34.36;45.55
67868;SHT31;54672;46.096;14.470;2023-06-22T07:40:52;34.46;45.56
67868;SHT31;54672;46.096;14.470;2023-06-22T07:43:19;33.75;46.61
67868;SHT31;54672;46.096;14.470;2023-06-22T07:45:51;34.45;46.20
67868;SHT31;54672;46.096;14.470;2023-06-22T07:48:21;34.60;45.39
67868;SHT31;54672;46.096;14.470;2023-06-22T07:50:51;34.61;45.37
67868;SHT31;54672;46.096;14.470;2023-06-22T07:53:21;33.71;47.19
67868;SHT31;54672;46.096;14.470;2023-06-22T07:55:52;33.85;46.92
67868;SHT31;54672;46.096;14.470;2023-06-22T07:58:26;33.80;46.71
67868;SHT31;54672;46.096;14.470;2023-06-22T08:01:02;34.11;45.95
67868;SHT31;54672;46.096;14.470;2023-06-22T08:03:34;33.87;47.11
67868;SHT31;54672;46.096;14.470;2023-06-22T08:06:03;33.98;46.26
67868;SHT31;54672;46.096;14.470;2023-06-22T08:08:28;34.42;46.57
67868;SHT31;54672;46.096;14.470;2023-06-22T08:10:54;35.10;45.32
67868;SHT31;54672;46.096;14.470;2023-06-22T08:13:20;34.31;46.62
67868;SHT31;54672;46.096;14.470;2023-06-22T08:15:51;33.91;46.82
67868;SHT31;54672;46.096;14.470;2023-06-22T08:18:20;33.78;47.47
67868;SHT31;54672;46.096;14.470;2023-06-22T08:20:48;34.16;46.58
67868;SHT31;54672;46.096;14.470;2023-06-22T08:23:15;34.05;48.15
67868;SHT31;54672;46.096;14.470;2023-06-22T08:25:55;34.31;46.75
67868;SHT31;54672;46.096;14.470;2023-06-22T08:28:21;33.60;47.47
67868;SHT31;54672;46.096;14.470;2023-06-22T08:30:50;33.04;48.59
67868;SHT31;54672;46.096;14.470;2023-06-22T08:33:27;33.21;49.32
67868;SHT31;54672;46.096;14.470;2023-06-22T08:35:58;33.75;48.13
67868;SHT31;54672;46.096;14.470;2023-06-22T08:38:33;34.56;46.25
67868;SHT31;54672;46.096;14.470;2023-06-22T08:41:07;34.43;46.02
67868;SHT31;54672;46.096;14.470;2023-06-22T08:43:41;34.45;45.06
67868;SHT31;54672;46.096;14.470;2023-06-22T08:46:12;34.31;46.20
67868;SHT31;54672;46.096;14.470;2023-06-22T08:49:15;33.82;46.38
67868;SHT31;54672;46.096;14.470;2023-06-22T08:51:55;34.19;46.64
67868;SHT31;54672;46.096;14.470;2023-06-22T08:54:22;34.64;45.55
67868;SHT31;54672;46.096;14.470;2023-06-22T08:57:02;35.18;45.43
67868;SHT31;54672;46.096;14.470;2023-06-22T08:59:42;34.98;44.32
67868;SHT31;54672;46.096;14.470;2023-06-22T09:02:30;35.54;44.12
67868;SHT31;54672;46.096;14.470;2023-06-22T09:05:22;35.74;44.01
67868;SHT31;54672;46.096;14.470;2023-06-22T09:07:52;35.34;44.38
67868;SHT31;54672;46.096;14.470;2023-06-22T09:10:40;35.31;44.45
67868;SHT31;54672;46.096;14.470;2023-06-22T09:13:09;35.00;45.19
67868;SHT31;54672;46.096;14.470;2023-06-22T09:15:38;34.87;45.82
67868;SHT31;54672;46.096;14.470;2023-06-22T09:18:09;34.33;46.47
67868;SHT31;54672;46.096;14.470;2023-06-22T09:20:53;34.52;45.76
67868;SHT31;54672;46.096;14.470;2023-06-22T09:24:00;34.32;46.49
67868;SHT31;54672;46.096;14.470;2023-06-22T09:26:40;33.80;47.31
67868;SHT31;54672;46.096;14.470;2023-06-22T09:29:10;33.49;47.91
67868;SHT31;54672;46.096;14.470;2023-06-22T09:31:39;33.27;48.68
67868;SHT31;54672;46.096;14.470;2023-06-22T09:34:16;32.89;48.84
67868;SHT31;54672;46.096;14.470;2023-06-22T09:36:51;32.68;48.80
67868;SHT31;54672;46.096;14.470;2023-06-22T09:39:26;32.11;50.37
67868;SHT31;54672;46.096;14.470;2023-06-22T09:42:14;31.98;50.67
67868;SHT31;54672;46.096;14.470;2023-06-22T09:44:46;31.62;52.28
67868;SHT31;54672;46.096;14.470;2023-06-22T09:47:14;31.97;51.83
67868;SHT31;54672;46.096;14.470;2023-06-22T09:49:48;32.21;51.73
67868;SHT31;54672;46.096;14.470;2023-06-22T09:52:20;31.91;51.86
67868;SHT31;54672;46.096;14.470;2023-06-22T09:54:58;31.91;53.34
67868;SHT31;54672;46.096;14.470;2023-06-22T09:57:29;31.64;52.14
67868;SHT31;54672;46.096;14.470;2023-06-22T10:00:01;31.49;52.47
67868;SHT31;54672;46.096;14.470;2023-06-22T10:02:31;31.56;52.48
67868;SHT31;54672;46.096;14.470;2023-06-22T10:05:00;31.47;52.44
67868;SHT31;54672;46.096;14.470;2023-06-22T10:07:37;31.29;53.07
67868;SHT31;54672;46.096;14.470;2023-06-22T10:10:19;31.30;52.96
67868;SHT31;54672;46.096;14.470;2023-06-22T10:15:24;31.47;52.73
67868;SHT31;54672;46.096;14.470;2023-06-22T10:17:55;31.81;52.07
67868;SHT31;54672;46.096;14.470;2023-06-22T10:20:22;32.07;52.30
67868;SHT31;54672;46.096;14.470;2023-06-22T10:22:53;32.27;52.12
67868;SHT31;54672;46.096;14.470;2023-06-22T10:25:36;32.00;51.83
67868;SHT31;54672;46.096;14.470;2023-06-22T10:28:11;32.17;50.63
67868;SHT31;54672;46.096;14.470;2023-06-22T10:30:43;32.42;50.95
67868;SHT31;54672;46.096;14.470;2023-06-22T10:33:22;32.49;50.97
67868;SHT31;54672;46.096;14.470;2023-06-22T10:35:47;32.45;50.52
67868;SHT31;54672;46.096;14.470;2023-06-22T10:38:13;32.48;50.62
67868;SHT31;54672;46.096;14.470;2023-06-22T10:40:38;32.41;51.14
67868;SHT31;54672;46.096;14.470;2023-06-22T10:43:04;32.22;52.08
67868;SHT31;54672;46.096;14.470;2023-06-22T10:45:30;32.25;51.78
67868;SHT31;54672;46.096;14.470;2023-06-22T10:47:55;32.28;51.84
67868;SHT31;54672;46.096;14.470;2023-06-22T10:50:21;32.41;51.23
67868;SHT31;54672;46.096;14.470;2023-06-22T10:52:49;32.55;51.15
67868;SHT31;54672;46.096;14.470;2023-06-22T10:55:14;32.65;51.37
67868;SHT31;54672;46.096;14.470;2023-06-22T10:57:40;32.82;51.03
67868;SHT31;54672;46.096;14.470;2023-06-22T11:00:08;33.06;50.86
67868;SHT31;54672;46.096;14.470;2023-06-22T11:02:34;33.37;51.49
67868;SHT31;54672;46.096;14.470;2023-06-22T11:04:59;33.27;51.01
67868;SHT31;54672;46.096;14.470;2023-06-22T11:07:29;33.29;51.41
67868;SHT31;54672;46.096;14.470;2023-06-22T11:09:54;33.12;51.25
67868;SHT31;54672;46.096;14.470;2023-06-22T11:12:20;32.65;51.82
67868;SHT31;54672;46.096;14.470;2023-06-22T11:14:45;32.55;52.56
67868;SHT31;54672;46.096;14.470;2023-06-22T11:17:11;32.83;53.44
67868;SHT31;54672;46.096;14.470;2023-06-22T11:19:36;33.04;51.86
67868;SHT31;54672;46.096;14.470;2023-06-22T11:22:02;33.34;50.43
67868;SHT31;54672;46.096;14.470;2023-06-22T11:24:27;33.31;49.58
67868;SHT31;54672;46.096;14.470;2023-06-22T11:26:53;33.37;50.18
67868;SHT31;54672;46.096;14.470;2023-06-22T11:29:18;33.77;50.46
67868;SHT31;54672;46.096;14.470;2023-06-22T11:31:43;34.15;50.40
67868;SHT31;54672;46.096;14.470;2023-06-22T11:34:09;34.20;47.94
67868;SHT31;54672;46.096;14.470;2023-06-22T11:36:34;34.35;47.69
67868;SHT31;54672;46.096;14.470;2023-06-22T11:39:00;34.32;47.70
67868;SHT31;54672;46.096;14.470;2023-06-22T11:41:26;34.55;48.50
67868;SHT31;54672;46.096;14.470;2023-06-22T11:43:51;34.71;48.41
67868;SHT31;54672;46.096;14.470;2023-06-22T11:46:17;34.33;47.42
67868;SHT31;54672;46.096;14.470;2023-06-22T11:48:42;34.39;47.59
67868;SHT31;54672;46.096;14.470;2023-06-22T11:51:07;34.69;47.21
67868;SHT31;54672;46.096;14.470;2023-06-22T11:53:34;34.70;48.03
67868;SHT31;54672;46.096;14.470;2023-06-22T11:56:00;34.76;47.64
67868;SHT31;54672;46.096;14.470;2023-06-22T11:58:26;34.83;47.30
67868;SHT31;54672;46.096;14.470;2023-06-22T12:00:51;34.89;46.95
67868;SHT31;54672;46.096;14.470;2023-06-22T12:03:17;34.97;46.88
67868;SHT31;54672;46.096;14.470;2023-06-22T12:05:43;34.91;47.21
67868;SHT31;54672;46.096;14.470;2023-06-22T12:08:08;34.80;47.95
67868;SHT31;54672;46.096;14.470;2023-06-22T12:10:34;34.77;46.87
67868;SHT31;54672;46.096;14.470;2023-06-22T12:12:59;34.80;47.65
67868;SHT31;54672;46.096;14.470;2023-06-22T12:15:25;34.63;46.39
67868;SHT31;54672;46.096;14.470;2023-06-22T12:17:51;34.74;46.54
67868;SHT31;54672;46.096;14.470;2023-06-22T12:20:16;34.42;46.38
67868;SHT31;54672;46.096;14.470;2023-06-22T12:22:42;34.64;46.41
67868;SHT31;54672;46.096;14.470;2023-06-22T12:25:08;34.59;45.87
67868;SHT31;54672;46.096;14.470;2023-06-22T12:27:35;34.59;46.06
67868;SHT31;54672;46.096;14.470;2023-06-22T12:30:00;34.79;44.25
67868;SHT31;54672;46.096;14.470;2023-06-22T12:32:26;34.82;44.48
67868;SHT31;54672;46.096;14.470;2023-06-22T12:34:52;34.94;45.18
67868;SHT31;54672;46.096;14.470;2023-06-22T12:37:17;34.70;44.88
67868;SHT31;54672;46.096;14.470;2023-06-22T12:39:43;34.61;44.41
67868;SHT31;54672;46.096;14.470;2023-06-22T12:42:09;34.59;43.60
67868;SHT31;54672;46.096;14.470;2023-06-22T12:44:35;34.60;43.69
67868;SHT31;54672;46.096;14.470;2023-06-22T12:47:00;34.69;42.66
67868;SHT31;54672;46.096;14.470;2023-06-22T12:49:26;34.73;43.52
67868;SHT31;54672;46.096;14.470;2023-06-22T12:51:51;34.71;44.11
67868;SHT31;54672;46.096;14.470;2023-06-22T12:54:17;34.46;44.53
67868;SHT31;54672;46.096;14.470;2023-06-22T12:56:42;34.50;45.44
67868;SHT31;54672;46.096;14.470;2023-06-22T12:59:10;34.50;45.75
67868;SHT31;54672;46.096;14.470;2023-06-22T13:01:35;34.61;46.01
67868;SHT31;54672;46.096;14.470;2023-06-22T13:04:02;34.53;46.11
67868;SHT31;54672;46.096;14.470;2023-06-22T13:06:28;34.15;46.87
67868;SHT31;54672;46.096;14.470;2023-06-22T13:08:54;34.15;47.27
67868;SHT31;54672;46.096;14.470;2023-06-22T13:11:19;34.06;48.31
67868;SHT31;54672;46.096;14.470;2023-06-22T13:13:45;34.16;48.20
67868;SHT31;54672;46.096;14.470;2023-06-22T13:16:12;34.19;48.90
67868;SHT31;54672;46.096;14.470;2023-06-22T13:18:39;34.02;49.69
67868;SHT31;54672;46.096;14.470;2023-06-22T13:21:04;34.19;50.31
67868;SHT31;54672;46.096;14.470;2023-06-22T13:23:30;34.04;51.06
67868;SHT31;54672;46.096;14.470;2023-06-22T13:25:56;34.22;50.40
67868;SHT31;54672;46.096;14.470;2023-06-22T13:28:21;34.16;51.71
67868;SHT31;54672;46.096;14.470;2023-06-22T13:30:47;34.19;50.86
67868;SHT31;54672;46.096;14.470;2023-06-22T13:33:13;34.23;51.98
67868;SHT31;54672;46.096;14.470;2023-06-22T13:35:39;34.25;51.43
67868;SHT31;54672;46.096;14.470;2023-06-22T13:38:05;34.02;51.96
67868;SHT31;54672;46.096;14.470;2023-06-22T13:40:30;33.92;52.90
67868;SHT31;54672;46.096;14.470;2023-06-22T13:42:56;33.72;53.56
67868;SHT31;54672;46.096;14.470;2023-06-22T13:45:22;33.98;52.80
67868;SHT31;54672;46.096;14.470;2023-06-22T13:47:47;34.09;52.80
67868;SHT31;54672;46.096;14.470;2023-06-22T13:50:13;34.13;53.62
67868;SHT31;54672;46.096;14.470;2023-06-22T13:52:39;34.12;52.46
67868;SHT31;54672;46.096;14.470;2023-06-22T13:55:05;34.22;53.07
67868;SHT31;54672;46.096;14.470;2023-06-22T13:57:32;34.23;53.31
67868;SHT31;54672;46.096;14.470;2023-06-22T13:59:57;33.99;53.91
67868;SHT31;54672;46.096;14.470;2023-06-22T14:02:23;33.91;54.35
67868;SHT31;54672;46.096;14.470;2023-06-22T14:04:48;33.89;54.68
67868;SHT31;54672;46.096;14.470;2023-06-22T14:07:14;34.05;54.73
67868;SHT31;54672;46.096;14.470;2023-06-22T14:09:39;34.06;55.08
67868;SHT31;54672;46.096;14.470;2023-06-22T14:12:06;34.19;54.54
67868;SHT31;54672;46.096;14.470;2023-06-22T14:14:32;34.15;54.17
67868;SHT31;54672;46.096;14.470;2023-06-22T14:16:58;34.01;54.29
67868;SHT31;54672;46.096;14.470;2023-06-22T14:19:24;34.23;53.66
67868;SHT31;54672;46.096;14.470;2023-06-22T14:21:49;34.23;53.47
67868;SHT31;54672;46.096;14.470;2023-06-22T14:24:15;34.39;54.28
67868;SHT31;54672;46.096;14.470;2023-06-22T14:26:41;34.55;54.32
67868;SHT31;54672;46.096;14.470;2023-06-22T14:29:06;34.87;52.69
67868;SHT31;54672;46.096;14.470;2023-06-22T14:31:31;34.97;52.24
67868;SHT31;54672;46.096;14.470;2023-06-22T14:33:57;34.94;52.79
67868;SHT31;54672;46.096;14.470;2023-06-22T14:36:23;34.57;53.17
67868;SHT31;54672;46.096;14.470;2023-06-22T14:38:48;34.64;53.12
67868;SHT31;54672;46.096;14.470;2023-06-22T14:41:14;34.49;53.38
67868;SHT31;54672;46.096;14.470;2023-06-22T14:43:49;33.46;55.15
67868;SHT31;54672;46.096;14.470;2023-06-22T14:46:19;33.74;55.02
67868;SHT31;54672;46.096;14.470;2023-06-22T14:48:45;33.68;54.55
67868;SHT31;54672;46.096;14.470;2023-06-22T14:51:11;33.72;55.18
67868;SHT31;54672;46.096;14.470;2023-06-22T14:53:37;33.77;55.10
67868;SHT31;54672;46.096;14.470;2023-06-22T14:56:03;33.74;55.09
67868;SHT31;54672;46.096;14.470;2023-06-22T14:58:30;33.97;54.65
67868;SHT31;54672;46.096;14.470;2023-06-22T15:00:59;34.01;54.30
67868;SHT31;54672;46.096;14.470;2023-06-22T15:03:25;33.37;55.63
67868;SHT31;54672;46.096;14.470;2023-06-22T15:05:53;33.37;54.54
67868;SHT31;54672;46.096;14.470;2023-06-22T15:08:19;33.27;55.36
67868;SHT31;54672;46.096;14.470;2023-06-22T15:10:44;33.55;52.88
67868;SHT31;54672;46.096;14.470;2023-06-22T15:13:10;33.75;52.45
67868;SHT31;54672;46.096;14.470;2023-06-22T15:15:35;33.85;51.66
67868;SHT31;54672;46.096;14.470;2023-06-22T15:18:01;33.67;50.37
67868;SHT31;54672;46.096;14.470;2023-06-22T15:20:27;33.37;51.72
67868;SHT31;54672;46.096;14.470;2023-06-22T15:22:52;33.54;52.67
67868;SHT31;54672;46.096;14.470;2023-06-22T15:25:18;33.50;51.40